createdAt,value
2019-03-16T00:01:02.292Z,6.48
2019-03-16T00:03:09.393Z,6.52
2019-03-16T00:05:16.396Z,6.59
2019-03-16T00:07:32.859Z,6.63
2019-03-16T00:09:33.428Z,6.62
2019-03-16T00:11:40.850Z,6.64
2019-03-16T00:13:48.060Z,6.63
2019-03-16T00:15:55.482Z,6.57
2019-03-16T00:18:02.525Z,6.53
2019-03-16T00:20:12.416Z,6.49
2019-03-16T00:22:20.021Z,6.45
2019-03-16T00:24:27.140Z,6.40
2019-03-16T00:26:34.315Z,6.35
2019-03-16T00:28:41.902Z,6.31
2019-03-16T00:30:50.220Z,6.27
2019-03-16T00:32:58.892Z,6.22
2019-03-16T00:35:07.340Z,6.21
2019-03-16T00:37:14.832Z,6.18
2019-03-16T00:39:22.532Z,6.20
2019-03-16T00:41:30.409Z,6.19
2019-03-16T00:43:37.413Z,6.20
2019-03-16T00:45:44.389Z,6.17
2019-03-16T00:47:51.598Z,6.16
2019-03-16T00:49:58.820Z,6.14
2019-03-16T00:52:06.445Z,6.16
2019-03-16T00:54:14.198Z,6.19
2019-03-16T00:56:21.227Z,6.18
2019-03-16T00:58:29.511Z,6.23
2019-03-16T01:00:36.684Z,6.21
2019-03-16T01:02:44.971Z,6.20
2019-03-16T01:04:52.177Z,6.20
2019-03-16T01:06:59.174Z,6.22
2019-03-16T01:09:08.357Z,6.24
2019-03-16T01:11:15.349Z,6.25
2019-03-16T01:13:22.962Z,6.27
2019-03-16T01:15:30.136Z,6.27
2019-03-16T01:17:37.034Z,6.33
2019-03-16T01:19:44.565Z,6.37
2019-03-16T01:22:12.377Z,6.43
2019-03-16T01:24:19.324Z,6.49
2019-03-16T01:26:26.352Z,6.54
2019-03-16T01:28:33.330Z,6.54
2019-03-16T01:30:40.633Z,6.57
2019-03-16T01:32:47.760Z,6.57
2019-03-16T01:34:54.941Z,6.59
2019-03-16T01:37:02.021Z,6.63
2019-03-16T01:39:09.728Z,6.64
2019-03-16T01:41:16.804Z,6.62
2019-03-16T01:43:24.004Z,6.61
2019-03-16T01:45:31.286Z,6.59
2019-03-16T01:47:38.826Z,6.54
2019-03-16T01:49:45.957Z,6.55
2019-03-16T01:51:53.462Z,6.53
2019-03-16T01:54:00.493Z,6.50
2019-03-16T01:56:07.779Z,6.45
2019-03-16T01:58:15.419Z,6.41
2019-03-16T02:00:22.651Z,6.36
2019-03-16T02:02:30.151Z,6.28
2019-03-16T02:04:37.636Z,6.16
2019-03-16T02:06:44.992Z,6.05
2019-03-16T02:08:52.611Z,5.91
2019-03-16T02:11:01.313Z,5.83
2019-03-16T02:13:09.740Z,5.74
2019-03-16T02:15:17.458Z,5.67
2019-03-16T02:17:26.154Z,5.61
2019-03-16T02:19:35.791Z,5.58
2019-03-16T02:21:42.279Z,5.51
2019-03-16T02:23:49.449Z,5.46
2019-03-16T02:25:57.443Z,5.41
2019-03-16T02:28:05.101Z,5.36
2019-03-16T02:30:13.561Z,5.34
2019-03-16T02:32:20.564Z,5.26
2019-03-16T02:34:28.291Z,5.22
2019-03-16T02:36:36.015Z,5.20
2019-03-16T02:38:43.301Z,5.15
2019-03-16T02:40:50.263Z,5.08
2019-03-16T02:42:58.249Z,5.04
2019-03-16T02:45:07.405Z,5.01
2019-03-16T02:47:15.201Z,5.00
2019-03-16T02:49:22.335Z,4.99
2019-03-16T02:51:29.976Z,4.97
2019-03-16T02:53:38.002Z,4.94
2019-03-16T02:55:45.262Z,4.92
2019-03-16T02:57:52.571Z,4.93
2019-03-16T03:00:00.459Z,4.94
2019-03-16T03:02:08.295Z,4.93
2019-03-16T03:04:15.439Z,4.91
2019-03-16T03:06:22.371Z,4.90
2019-03-16T03:08:29.773Z,4.90
2019-03-16T03:10:37.124Z,4.90
2019-03-16T03:12:44.427Z,4.88
2019-03-16T03:14:51.578Z,4.89
2019-03-16T03:16:58.605Z,4.89
2019-03-16T03:19:05.783Z,4.90
2019-03-16T03:21:12.884Z,4.88
2019-03-16T03:23:19.928Z,4.87
2019-03-16T03:25:26.820Z,4.86
2019-03-16T03:27:33.707Z,4.84
2019-03-16T03:29:40.652Z,4.84
2019-03-16T03:31:47.490Z,4.83
2019-03-16T03:34:00.863Z,4.82
2019-03-16T03:36:03.782Z,4.81
2019-03-16T03:38:10.829Z,4.78
2019-03-16T03:40:19.356Z,4.80
2019-03-16T03:42:26.303Z,4.79
2019-03-16T03:44:33.442Z,4.79
2019-03-16T03:46:40.549Z,4.79
2019-03-16T03:48:48.178Z,4.75
2019-03-16T03:50:55.392Z,4.76
2019-03-16T03:53:02.788Z,4.76
2019-03-16T03:55:12.406Z,4.74
2019-03-16T03:57:19.839Z,4.76
2019-03-16T03:59:27.397Z,4.74
2019-03-16T04:01:34.512Z,4.72
2019-03-16T04:04:15.127Z,4.71
2019-03-16T04:06:12.359Z,4.70
2019-03-16T04:08:19.534Z,4.71
2019-03-16T04:10:27.208Z,4.73
2019-03-16T04:12:36.380Z,4.76
2019-03-16T04:14:45.154Z,4.72
2019-03-16T04:16:52.289Z,4.71
2019-03-16T04:18:59.360Z,4.70
2019-03-16T04:21:07.763Z,4.70
2019-03-16T04:23:14.924Z,4.70
2019-03-16T04:25:22.420Z,4.72
2019-03-16T04:27:30.262Z,4.72
2019-03-16T04:29:37.372Z,4.72
2019-03-16T04:31:44.931Z,4.70
2019-03-16T04:33:52.658Z,4.69
2019-03-16T04:36:00.384Z,4.71
2019-03-16T04:38:08.269Z,4.69
2019-03-16T04:40:15.999Z,4.66
2019-03-16T04:42:26.331Z,4.64
2019-03-16T04:44:33.527Z,4.64
2019-03-16T04:46:41.028Z,4.66
2019-03-16T04:48:48.553Z,4.66
2019-03-16T04:50:55.997Z,4.68
2019-03-16T04:53:03.534Z,4.68
2019-03-16T04:55:12.177Z,4.69
2019-03-16T04:57:20.874Z,4.68
2019-03-16T04:59:28.258Z,4.66
2019-03-16T05:01:35.566Z,4.65
2019-03-16T05:03:43.122Z,4.64
2019-03-16T05:05:50.924Z,4.64
2019-03-16T05:07:58.504Z,4.62
2019-03-16T05:10:10.543Z,4.62
2019-03-16T05:12:17.766Z,4.63
2019-03-16T05:14:25.244Z,4.62
2019-03-16T05:16:32.636Z,4.64
2019-03-16T05:18:39.802Z,4.64
2019-03-16T05:20:46.771Z,4.64
2019-03-16T05:22:54.385Z,4.65
2019-03-16T05:25:01.556Z,4.67
2019-03-16T05:27:09.222Z,4.64
2019-03-16T05:29:16.383Z,4.63
2019-03-16T05:31:23.625Z,4.61
2019-03-16T05:33:30.456Z,4.62
2019-03-16T05:35:38.780Z,4.58
2019-03-16T05:37:46.367Z,4.60
2019-03-16T05:40:06.547Z,4.60
2019-03-16T05:42:13.315Z,4.63
2019-03-16T05:44:20.202Z,4.66
2019-03-16T05:46:27.051Z,4.67
2019-03-16T05:48:34.883Z,4.69
2019-03-16T05:50:42.248Z,4.65
2019-03-16T05:52:48.924Z,4.65
2019-03-16T05:54:55.899Z,4.62
2019-03-16T05:57:02.463Z,4.57
2019-03-16T05:59:09.178Z,4.52
2019-03-16T06:01:15.835Z,4.51
2019-03-16T06:03:22.555Z,4.52
2019-03-16T06:05:29.499Z,4.49
2019-03-16T06:07:36.207Z,4.51
2019-03-16T06:09:43.158Z,4.49
2019-03-16T06:11:49.821Z,4.52
2019-03-16T06:13:56.681Z,4.54
2019-03-16T06:16:03.700Z,4.52
2019-03-16T06:18:13.101Z,4.51
2019-03-16T06:20:19.067Z,4.51
2019-03-16T06:22:25.891Z,4.47
2019-03-16T06:24:33.347Z,4.46
2019-03-16T06:26:40.420Z,4.44
2019-03-16T06:28:47.050Z,4.44
2019-03-16T06:30:54.538Z,4.45
2019-03-16T06:33:01.384Z,4.45
2019-03-16T06:35:08.663Z,4.42
2019-03-16T06:37:15.344Z,4.45
2019-03-16T06:39:22.030Z,4.46
2019-03-16T06:41:28.917Z,4.55
2019-03-16T06:43:35.621Z,4.50
2019-03-16T06:45:42.413Z,4.46
2019-03-16T06:47:50.502Z,4.43
2019-03-16T06:49:57.422Z,4.50
2019-03-16T06:52:04.272Z,4.50
2019-03-16T06:54:11.074Z,4.46
2019-03-16T06:56:18.046Z,4.39
2019-03-16T06:58:24.915Z,4.37
2019-03-16T07:00:31.610Z,4.66
2019-03-16T07:02:38.441Z,4.67
2019-03-16T07:04:45.329Z,4.73
2019-03-16T07:06:53.312Z,4.61
2019-03-16T07:08:59.895Z,4.50
2019-03-16T07:11:06.673Z,4.56
2019-03-16T07:13:13.546Z,4.62
2019-03-16T07:15:20.339Z,4.61
2019-03-16T07:17:27.101Z,4.69
2019-03-16T07:19:34.129Z,4.70
2019-03-16T07:21:40.932Z,4.72
2019-03-16T07:23:47.652Z,4.73
2019-03-16T07:25:55.201Z,4.73
2019-03-16T07:28:01.809Z,4.73
2019-03-16T07:30:16.574Z,4.77
2019-03-16T07:32:23.367Z,4.84
2019-03-16T07:34:30.171Z,4.90
2019-03-16T07:36:36.970Z,4.87
2019-03-16T07:38:43.787Z,4.93
2019-03-16T07:40:50.397Z,4.97
2019-03-16T07:42:57.270Z,5.02
2019-03-16T07:45:08.500Z,5.04
2019-03-16T07:47:12.350Z,5.04
2019-03-16T07:49:19.126Z,5.05
2019-03-16T07:51:26.197Z,5.23
2019-03-16T07:53:32.964Z,5.34
2019-03-16T07:55:42.241Z,5.38
2019-03-16T07:57:49.316Z,5.47
2019-03-16T07:59:56.220Z,5.58
2019-03-16T08:02:03.060Z,5.59
2019-03-16T08:04:10.128Z,5.63
2019-03-16T08:06:16.906Z,5.68
2019-03-16T08:08:23.802Z,5.74
2019-03-16T08:10:30.486Z,5.88
2019-03-16T08:12:37.271Z,5.95
2019-03-16T08:14:44.083Z,5.99
2019-03-16T08:16:50.932Z,6.03
2019-03-16T08:18:58.726Z,6.06
2019-03-16T08:21:05.503Z,6.10
2019-03-16T08:23:12.178Z,6.13
2019-03-16T08:25:18.970Z,6.28
2019-03-16T08:27:25.853Z,6.36
2019-03-16T08:29:32.424Z,6.49
2019-03-16T08:31:39.363Z,6.56
2019-03-16T08:33:46.372Z,6.72
2019-03-16T08:35:53.079Z,6.81
2019-03-16T08:37:59.952Z,6.87
2019-03-16T08:40:10.383Z,6.86
2019-03-16T08:42:17.046Z,6.84
2019-03-16T08:44:23.829Z,6.80
2019-03-16T08:46:30.671Z,6.85
2019-03-16T08:48:38.552Z,6.70
2019-03-16T08:50:45.097Z,6.69
2019-03-16T08:52:53.950Z,6.85
2019-03-16T08:55:01.102Z,6.86
2019-03-16T08:57:09.876Z,6.87
2019-03-16T08:59:16.632Z,6.93
2019-03-16T09:01:23.458Z,6.87
2019-03-16T09:03:42.709Z,6.81
2019-03-16T09:05:39.215Z,6.77
2019-03-16T09:07:46.208Z,6.72
2019-03-16T09:09:53.045Z,6.67
2019-03-16T09:12:01.350Z,6.62
2019-03-16T09:14:08.154Z,6.63
2019-03-16T09:16:15.046Z,6.69
2019-03-16T09:18:21.929Z,6.73
2019-03-16T09:20:28.620Z,6.79
2019-03-16T09:22:35.414Z,6.83
2019-03-16T09:24:44.692Z,6.87
2019-03-16T09:26:51.908Z,6.88
2019-03-16T09:29:00.344Z,6.86
2019-03-16T09:31:07.507Z,6.92
2019-03-16T09:33:19.149Z,6.93
2019-03-16T09:35:26.905Z,6.99
2019-03-16T09:37:36.560Z,7.01
2019-03-16T09:39:49.814Z,7.08
2019-03-16T09:42:00.695Z,7.21
2019-03-16T09:44:11.852Z,7.25
2019-03-16T09:46:24.327Z,7.39
2019-03-16T09:48:31.875Z,7.40
2019-03-16T09:50:38.839Z,7.49
2019-03-16T09:52:52.795Z,7.57
2019-03-16T09:55:00.438Z,7.53
2019-03-16T09:57:07.608Z,7.58
2019-03-16T09:59:17.747Z,7.63
2019-03-16T10:01:29.574Z,7.69
2019-03-16T10:03:42.591Z,7.93
2019-03-16T10:05:55.217Z,8.11
2019-03-16T10:08:07.940Z,8.12
2019-03-16T10:10:19.583Z,8.25
2019-03-16T10:12:27.055Z,8.22
2019-03-16T10:14:37.031Z,8.09
2019-03-16T10:16:42.660Z,7.77
2019-03-16T10:18:49.628Z,7.76
2019-03-16T10:20:56.601Z,7.90
2019-03-16T10:23:03.375Z,7.92
2019-03-16T10:25:13.413Z,8.19
2019-03-16T10:27:28.965Z,8.15
2019-03-16T10:29:41.615Z,8.16
2019-03-16T10:31:55.034Z,8.19
2019-03-16T10:34:05.671Z,7.91
2019-03-16T10:36:18.970Z,7.85
2019-03-16T10:38:31.800Z,7.90
2019-03-16T10:40:45.665Z,7.70
2019-03-16T10:42:58.021Z,7.58
2019-03-16T10:45:11.621Z,7.50
2019-03-16T10:47:32.280Z,7.43
2019-03-16T10:49:50.978Z,7.32
2019-03-16T10:51:59.429Z,7.13
2019-03-16T10:54:06.911Z,6.85
2019-03-16T10:56:14.927Z,6.59
2019-03-16T10:58:22.727Z,6.46
2019-03-16T11:00:30.392Z,6.38
2019-03-16T11:02:38.043Z,6.28
2019-03-16T11:04:45.454Z,6.38
2019-03-16T11:06:53.201Z,6.47
2019-03-16T11:09:10.585Z,6.66
2019-03-16T11:11:33.705Z,6.68
2019-03-16T11:13:45.337Z,6.79
2019-03-16T11:15:57.920Z,7.06
2019-03-16T11:18:10.801Z,7.20
2019-03-16T11:20:22.736Z,7.40
2019-03-16T11:22:51.872Z,7.74
2019-03-16T11:25:07.366Z,7.80
2019-03-16T11:27:19.489Z,7.88
2019-03-16T11:29:30.591Z,8.00
2019-03-16T11:31:40.021Z,7.96
2019-03-16T11:33:48.631Z,7.95
2019-03-16T11:35:55.740Z,7.77
2019-03-16T11:38:03.159Z,7.62
2019-03-16T11:40:17.791Z,7.51
2019-03-16T11:42:26.290Z,7.62
2019-03-16T11:44:37.021Z,7.67
2019-03-16T11:46:50.787Z,7.80
2019-03-16T11:49:07.215Z,7.63
2019-03-16T11:51:20.893Z,7.55
2019-03-16T11:53:34.891Z,7.58
2019-03-16T11:55:42.804Z,7.64
2019-03-16T11:57:53.884Z,7.68
2019-03-16T12:00:00.911Z,7.65
2019-03-16T12:02:07.831Z,7.71
2019-03-16T12:04:14.729Z,7.72
2019-03-16T12:06:21.750Z,7.82
2019-03-16T12:08:28.663Z,7.92
2019-03-16T12:10:35.819Z,7.93
2019-03-16T12:12:42.905Z,7.87
2019-03-16T12:14:49.904Z,7.89
2019-03-16T12:16:56.903Z,7.81
2019-03-16T12:19:03.923Z,7.78
2019-03-16T12:21:10.944Z,7.86
2019-03-16T12:23:17.793Z,7.99
2019-03-16T12:25:24.682Z,8.07
2019-03-16T12:27:31.493Z,8.21
2019-03-16T12:29:38.276Z,8.44
2019-03-16T12:31:45.173Z,8.56
2019-03-16T12:33:52.179Z,8.56
2019-03-16T12:35:59.163Z,8.63
2019-03-16T12:38:06.009Z,8.66
2019-03-16T12:40:15.323Z,8.88
2019-03-16T12:42:22.311Z,9.09
2019-03-16T12:44:29.052Z,9.13
2019-03-16T12:46:35.950Z,9.08
2019-03-16T12:48:42.881Z,9.06
2019-03-16T12:50:50.246Z,9.07
2019-03-16T12:53:02.217Z,9.10
2019-03-16T12:55:17.483Z,9.03
2019-03-16T12:57:28.970Z,9.01
2019-03-16T12:59:46.934Z,9.10
2019-03-16T13:02:00.368Z,9.18
2019-03-16T13:04:10.601Z,9.13
2019-03-16T13:06:19.158Z,9.27
2019-03-16T13:08:26.625Z,9.17
2019-03-16T13:10:34.257Z,9.17
2019-03-16T13:12:42.913Z,9.34
2019-03-16T13:14:50.114Z,9.33
2019-03-16T13:16:57.145Z,9.32
2019-03-16T13:19:04.143Z,9.45
2019-03-16T13:21:11.058Z,9.62
2019-03-16T13:23:18.438Z,9.79
2019-03-16T13:25:25.819Z,9.77
2019-03-16T13:27:32.883Z,9.61
2019-03-16T13:29:40.581Z,9.52
2019-03-16T13:31:47.518Z,9.36
2019-03-16T13:33:54.849Z,9.23
2019-03-16T13:36:03.847Z,9.18
2019-03-16T13:38:13.314Z,9.28
2019-03-16T13:40:22.832Z,9.46
2019-03-16T13:42:29.893Z,9.50
2019-03-16T13:44:36.965Z,9.65
2019-03-16T13:46:51.029Z,9.70
2019-03-16T13:48:58.985Z,9.66
2019-03-16T13:51:09.074Z,9.61
2019-03-16T13:53:23.225Z,9.68
2019-03-16T13:55:36.771Z,9.71
2019-03-16T13:57:48.559Z,9.82
2019-03-16T14:00:11.227Z,9.80
2019-03-16T14:02:21.535Z,9.74
2019-03-16T14:04:32.443Z,9.72
2019-03-16T14:06:44.996Z,9.78
2019-03-16T14:09:02.728Z,9.92
2019-03-16T14:11:16.657Z,10.07
2019-03-16T14:13:29.889Z,10.17
2019-03-16T14:15:45.077Z,10.18
2019-03-16T14:17:58.676Z,10.18
2019-03-16T14:20:16.089Z,10.13
2019-03-16T14:22:27.648Z,10.15
2019-03-16T14:24:40.404Z,10.19
2019-03-16T14:27:03.878Z,10.27
2019-03-16T14:29:14.051Z,10.38
2019-03-16T14:31:22.148Z,10.33
2019-03-16T14:33:30.386Z,10.35
2019-03-16T14:35:38.839Z,10.18
2019-03-16T14:37:47.340Z,10.01
2019-03-16T14:39:55.307Z,9.90
2019-03-16T14:42:02.922Z,9.94
2019-03-16T14:44:10.472Z,10.04
2019-03-16T14:46:18.284Z,10.19
2019-03-16T14:48:25.512Z,10.35
2019-03-16T14:50:37.001Z,10.44
2019-03-16T14:52:48.134Z,10.43
2019-03-16T14:55:00.449Z,10.39
2019-03-16T14:57:13.650Z,10.36
2019-03-16T14:59:21.292Z,10.44
2019-03-16T15:01:30.787Z,10.37
2019-03-16T15:03:39.551Z,10.26
2019-03-16T15:05:50.604Z,10.18
2019-03-16T15:07:59.404Z,10.18
2019-03-16T15:10:15.415Z,10.21
2019-03-16T15:12:26.132Z,10.08
2019-03-16T15:14:34.615Z,10.08
2019-03-16T15:16:45.143Z,10.00
2019-03-16T15:18:56.284Z,9.94
2019-03-16T15:21:02.896Z,9.83
2019-03-16T15:23:10.170Z,9.86
2019-03-16T15:25:17.121Z,9.83
2019-03-16T15:27:24.271Z,9.79
2019-03-16T15:29:34.037Z,9.63
2019-03-16T15:31:42.849Z,9.56
2019-03-16T15:33:53.422Z,9.53
2019-03-16T15:36:03.340Z,9.48
2019-03-16T15:38:12.171Z,9.40
2019-03-16T15:40:21.735Z,9.36
2019-03-16T15:42:31.254Z,9.35
2019-03-16T15:44:38.662Z,9.37
2019-03-16T15:46:46.086Z,9.38
2019-03-16T15:48:54.598Z,9.34
2019-03-16T15:51:01.753Z,9.30
2019-03-16T15:53:10.256Z,9.29
2019-03-16T15:55:18.692Z,9.25
2019-03-16T15:57:25.933Z,9.23
2019-03-16T15:59:35.923Z,9.19
2019-03-16T16:01:43.376Z,9.13
2019-03-16T16:03:50.248Z,9.08
2019-03-16T16:05:57.114Z,9.07
2019-03-16T16:08:04.117Z,9.02
2019-03-16T16:10:16.406Z,8.96
2019-03-16T16:12:24.502Z,8.92
2019-03-16T16:14:31.453Z,8.84
2019-03-16T16:16:38.521Z,8.80
2019-03-16T16:18:45.369Z,8.74
2019-03-16T16:20:52.509Z,8.68
2019-03-16T16:23:03.450Z,8.62
2019-03-16T16:25:15.451Z,8.56
2019-03-16T16:27:24.708Z,8.50
2019-03-16T16:29:34.950Z,8.45
2019-03-16T16:31:45.625Z,8.39
2019-03-16T16:33:55.513Z,8.33
2019-03-16T16:36:03.732Z,8.30
2019-03-16T16:38:19.093Z,8.24
2019-03-16T16:40:32.767Z,8.17
2019-03-16T16:42:40.505Z,8.10
2019-03-16T16:44:48.141Z,8.05
2019-03-16T16:46:57.187Z,7.99
2019-03-16T16:49:04.190Z,7.92
2019-03-16T16:51:13.376Z,7.85
2019-03-16T16:53:21.345Z,7.78
2019-03-16T16:55:31.946Z,7.69
2019-03-16T16:57:44.350Z,7.63
2019-03-16T16:59:58.277Z,7.57
2019-03-16T17:02:09.047Z,7.50
2019-03-16T17:04:20.335Z,7.46
2019-03-16T17:06:30.946Z,7.43
2019-03-16T17:08:42.456Z,7.39
2019-03-16T17:10:52.136Z,7.34
2019-03-16T17:12:59.526Z,7.33
2019-03-16T17:15:09.801Z,7.30
2019-03-16T17:17:17.160Z,7.30
2019-03-16T17:19:24.147Z,7.28
2019-03-16T17:21:31.426Z,7.26
2019-03-16T17:23:40.806Z,7.22
2019-03-16T17:25:48.078Z,7.21
2019-03-16T17:27:56.502Z,7.18
2019-03-16T17:30:04.395Z,7.16
2019-03-16T17:32:11.789Z,7.11
2019-03-16T17:34:19.068Z,7.12
2019-03-16T17:36:26.721Z,7.14
2019-03-16T17:38:33.881Z,7.12
2019-03-16T17:40:41.084Z,7.11
2019-03-16T17:42:48.244Z,7.12
2019-03-16T17:44:55.596Z,7.13
2019-03-16T17:47:03.082Z,7.13
2019-03-16T17:49:10.631Z,7.11
2019-03-16T17:51:19.626Z,7.11
2019-03-16T17:53:28.729Z,7.11
2019-03-16T17:55:36.072Z,7.09
2019-03-16T17:57:45.418Z,7.10
2019-03-16T17:59:53.071Z,7.10
2019-03-16T18:01:59.987Z,7.11
2019-03-16T18:04:09.014Z,7.11
2019-03-16T18:06:16.284Z,7.10
2019-03-16T18:08:23.278Z,7.08
2019-03-16T18:10:30.556Z,7.05
2019-03-16T18:12:39.500Z,7.05
2019-03-16T18:14:46.622Z,7.03
2019-03-16T18:16:55.219Z,6.99
2019-03-16T18:19:03.184Z,6.98
2019-03-16T18:21:10.985Z,6.96
2019-03-16T18:23:18.111Z,6.91
2019-03-16T18:25:26.057Z,6.89
2019-03-16T18:27:36.221Z,6.85
2019-03-16T18:29:43.302Z,6.83
2019-03-16T18:31:52.735Z,6.80
2019-03-16T18:34:01.349Z,6.79
2019-03-16T18:36:11.649Z,6.76
2019-03-16T18:38:20.724Z,6.75
2019-03-16T18:40:29.174Z,6.75
2019-03-16T18:42:36.256Z,6.74
2019-03-16T18:44:44.814Z,6.73
2019-03-16T18:46:55.264Z,6.73
2019-03-16T18:49:04.075Z,6.72
2019-03-16T18:51:11.035Z,6.71
2019-03-16T18:53:20.633Z,6.70
2019-03-16T18:55:28.649Z,6.71
2019-03-16T18:57:35.593Z,6.68
2019-03-16T18:59:43.429Z,6.67
2019-03-16T19:01:51.570Z,6.66
2019-03-16T19:03:58.631Z,6.65
2019-03-16T19:06:05.721Z,6.65
2019-03-16T19:08:12.657Z,6.65
2019-03-16T19:10:19.855Z,6.64
2019-03-16T19:12:28.175Z,6.63
2019-03-16T19:14:35.172Z,6.62
2019-03-16T19:16:42.454Z,6.61
2019-03-16T19:18:49.916Z,6.60
2019-03-16T19:20:56.882Z,6.60
2019-03-16T19:23:04.174Z,6.61
2019-03-16T19:25:22.795Z,6.60
2019-03-16T19:27:30.416Z,6.59
2019-03-16T19:29:37.835Z,6.61
2019-03-16T19:31:44.858Z,6.59
2019-03-16T19:33:53.018Z,6.60
2019-03-16T19:36:01.915Z,6.61
2019-03-16T19:38:13.234Z,6.60
2019-03-16T19:40:24.429Z,6.60
2019-03-16T19:42:31.462Z,6.60
2019-03-16T19:44:38.860Z,6.59
2019-03-16T19:46:45.955Z,6.61
2019-03-16T19:48:52.955Z,6.60
2019-03-16T19:51:04.183Z,6.59
2019-03-16T19:53:12.313Z,6.58
2019-03-16T19:55:20.453Z,6.57
2019-03-16T19:57:30.093Z,6.57
2019-03-16T19:59:41.605Z,6.58
2019-03-16T20:01:51.349Z,6.57
2019-03-16T20:04:01.023Z,6.56
2019-03-16T20:06:11.574Z,6.56
2019-03-16T20:08:19.519Z,6.63
2019-03-16T20:10:27.529Z,6.70
2019-03-16T20:12:35.052Z,6.73
2019-03-16T20:14:42.646Z,6.75
2019-03-16T20:16:50.536Z,6.82
2019-03-16T20:19:06.783Z,6.83
2019-03-16T20:21:17.508Z,6.84
2019-03-16T20:23:27.210Z,6.85
2019-03-16T20:25:39.661Z,6.86
2019-03-16T20:27:55.719Z,6.83
2019-03-16T20:30:07.103Z,6.82
2019-03-16T20:32:16.281Z,6.80
2019-03-16T20:34:26.621Z,6.78
2019-03-16T20:36:36.523Z,6.76
2019-03-16T20:38:46.992Z,6.74
2019-03-16T20:40:55.440Z,6.74
2019-03-16T20:43:05.218Z,6.72
2019-03-16T20:45:14.907Z,6.70
2019-03-16T20:47:22.784Z,6.66
2019-03-16T20:49:29.804Z,6.65
2019-03-16T20:51:37.074Z,6.64
2019-03-16T20:53:44.881Z,6.62
2019-03-16T20:55:51.865Z,6.60
2019-03-16T20:57:59.016Z,6.56
2019-03-16T21:00:17.633Z,6.54
2019-03-16T21:02:24.701Z,6.51
2019-03-16T21:04:31.713Z,6.49
2019-03-16T21:06:38.668Z,6.47
2019-03-16T21:08:45.587Z,6.46
2019-03-16T21:10:52.507Z,6.45
2019-03-16T21:12:59.706Z,6.42
2019-03-16T21:15:16.443Z,6.38
2019-03-16T21:17:23.494Z,6.36
2019-03-16T21:19:30.456Z,6.34
2019-03-16T21:21:37.360Z,6.32
2019-03-16T21:23:47.321Z,6.29
2019-03-16T21:25:54.249Z,6.26
2019-03-16T21:28:01.251Z,6.24
2019-03-16T21:30:23.119Z,6.21
2019-03-16T21:32:31.517Z,6.16
2019-03-16T21:34:38.625Z,6.15
2019-03-16T21:36:45.623Z,6.07
2019-03-16T21:38:52.972Z,6.01
2019-03-16T21:40:59.898Z,5.96
2019-03-16T21:43:06.885Z,5.93
2019-03-16T21:45:15.357Z,5.88
2019-03-16T21:47:22.250Z,5.86
2019-03-16T21:49:29.255Z,5.84
2019-03-16T21:51:36.190Z,5.84
2019-03-16T21:53:43.232Z,5.82
2019-03-16T21:55:50.349Z,5.76
2019-03-16T21:57:57.379Z,5.68
2019-03-16T22:00:06.255Z,5.65
2019-03-16T22:02:13.276Z,5.68
2019-03-16T22:04:20.164Z,5.63
2019-03-16T22:06:27.181Z,5.60
2019-03-16T22:08:35.221Z,5.61
2019-03-16T22:10:42.028Z,5.59
2019-03-16T22:12:49.455Z,5.57
2019-03-16T22:14:56.304Z,5.55
2019-03-16T22:17:03.423Z,5.54
2019-03-16T22:19:10.233Z,5.53
2019-03-16T22:21:17.368Z,5.54
2019-03-16T22:23:24.204Z,5.52
2019-03-16T22:25:32.593Z,5.53
2019-03-16T22:27:40.597Z,5.54
2019-03-16T22:29:48.676Z,5.54
2019-03-16T22:31:55.341Z,5.53
2019-03-16T22:34:02.241Z,5.54
2019-03-16T22:36:09.110Z,5.50
2019-03-16T22:38:16.236Z,5.44
2019-03-16T22:40:23.202Z,5.41
2019-03-16T22:42:29.952Z,5.45
2019-03-16T22:44:36.733Z,5.46
2019-03-16T22:46:43.536Z,5.47
2019-03-16T22:48:50.429Z,5.48
2019-03-16T22:50:57.451Z,5.51
2019-03-16T22:53:04.135Z,5.54
2019-03-16T22:55:10.912Z,5.53
2019-03-16T22:57:17.625Z,5.49
2019-03-16T22:59:24.686Z,5.49
2019-03-16T23:01:32.236Z,5.49
2019-03-16T23:03:39.164Z,5.48
2019-03-16T23:05:46.975Z,5.48
2019-03-16T23:07:53.704Z,5.47
2019-03-16T23:10:01.594Z,5.47
2019-03-16T23:12:08.461Z,5.48
2019-03-16T23:14:15.901Z,5.42
2019-03-16T23:16:25.752Z,5.46
2019-03-16T23:18:38.215Z,5.48
2019-03-16T23:20:45.701Z,5.45
2019-03-16T23:22:52.959Z,5.44
2019-03-16T23:25:00.299Z,5.44
2019-03-16T23:27:07.831Z,5.44
2019-03-16T23:29:15.116Z,5.42
2019-03-16T23:31:22.323Z,5.44
2019-03-16T23:33:29.442Z,5.43
2019-03-16T23:35:36.553Z,5.43
2019-03-16T23:37:43.715Z,5.43
2019-03-16T23:39:50.779Z,5.44
2019-03-16T23:41:57.715Z,5.43
2019-03-16T23:44:04.393Z,5.44
2019-03-16T23:46:11.277Z,5.44
2019-03-16T23:48:18.064Z,5.42
2019-03-16T23:50:24.795Z,5.44
2019-03-16T23:52:31.813Z,5.43
2019-03-16T23:54:38.541Z,5.43
2019-03-16T23:56:45.214Z,5.45
2019-03-16T23:58:52.101Z,5.42
